createdAt,value
2019-04-03T00:03:46.605Z,16.34
2019-04-03T00:07:52.340Z,16.29
2019-04-03T00:11:58.028Z,16.22
2019-04-03T00:16:03.768Z,16.28
2019-04-03T00:20:09.937Z,16.14
2019-04-03T00:24:15.597Z,16.12
2019-04-03T00:28:22.368Z,16.02
2019-04-03T00:32:28.501Z,15.94
2019-04-03T00:36:34.359Z,15.91
2019-04-03T00:40:40.112Z,15.95
2019-04-03T00:44:45.806Z,15.71
2019-04-03T00:48:51.484Z,15.76
2019-04-03T00:52:57.806Z,15.70
2019-04-03T00:57:03.819Z,15.74
2019-04-03T01:01:12.220Z,15.77
2019-04-03T01:05:18.065Z,15.64
2019-04-03T01:09:23.892Z,15.66
2019-04-03T01:13:31.298Z,15.78
2019-04-03T01:17:37.340Z,15.76
2019-04-03T01:21:44.118Z,15.94
2019-04-03T01:25:49.813Z,15.83
2019-04-03T01:29:55.494Z,15.71
2019-04-03T01:34:01.188Z,15.48
2019-04-03T01:38:07.065Z,14.89
2019-04-03T01:42:12.836Z,14.72
2019-04-03T01:46:18.536Z,14.69
2019-04-03T01:50:24.234Z,14.68
2019-04-03T01:54:29.926Z,14.38
2019-04-03T01:58:36.348Z,14.34
2019-04-03T02:02:42.697Z,14.26
2019-04-03T02:06:48.429Z,14.21
2019-04-03T02:10:54.258Z,13.99
2019-04-03T02:14:59.956Z,13.92
2019-04-03T02:19:05.984Z,13.94
2019-04-03T02:23:11.890Z,13.70
2019-04-03T02:27:17.753Z,13.75
2019-04-03T02:31:23.678Z,13.85
2019-04-03T02:35:29.383Z,14.17
2019-04-03T02:39:35.156Z,14.46
2019-04-03T02:43:41.087Z,14.14
2019-04-03T02:47:46.891Z,14.33
2019-04-03T02:51:53.750Z,14.07
2019-04-03T02:55:59.748Z,13.97
2019-04-03T03:00:08.592Z,13.97
2019-04-03T03:04:14.833Z,13.48
2019-04-03T03:08:22.721Z,13.09
2019-04-03T03:12:28.996Z,13.01
2019-04-03T03:16:35.921Z,12.92
2019-04-03T03:20:42.844Z,12.61
2019-04-03T03:24:49.563Z,12.82
2019-04-03T03:28:55.621Z,12.89
2019-04-03T03:33:24.545Z,12.80
2019-04-03T03:37:12.673Z,12.77
2019-04-03T03:41:22.660Z,13.08
2019-04-03T03:45:30.855Z,13.09
2019-04-03T03:49:37.400Z,13.08
2019-04-03T03:53:45.442Z,13.39
2019-04-03T03:57:52.330Z,13.25
2019-04-03T04:01:58.200Z,12.86
2019-04-03T04:06:04.734Z,12.99
2019-04-03T04:10:11.026Z,13.16
2019-04-03T04:14:21.461Z,13.35
2019-04-03T04:18:26.053Z,13.44
2019-04-03T04:22:32.969Z,13.18
2019-04-03T04:26:38.716Z,13.09
2019-04-03T04:30:48.457Z,12.93
2019-04-03T04:34:54.155Z,12.68
2019-04-03T04:38:59.847Z,12.55
2019-04-03T04:43:07.669Z,12.47
2019-04-03T04:47:15.032Z,12.57
2019-04-03T04:51:20.550Z,12.56
2019-04-03T04:55:26.246Z,12.61
2019-04-03T04:59:31.988Z,12.99
2019-04-03T05:03:37.823Z,13.22
2019-04-03T05:07:43.669Z,13.46
2019-04-03T05:11:49.281Z,13.56
2019-04-03T05:15:55.067Z,13.54
2019-04-03T05:20:00.956Z,13.23
2019-04-03T05:24:13.199Z,12.83
2019-04-03T05:28:14.204Z,12.87
2019-04-03T05:32:19.875Z,12.69
2019-04-03T05:36:25.859Z,12.60
2019-04-03T05:40:31.644Z,12.74
2019-04-03T05:44:37.597Z,12.79
2019-04-03T05:48:43.724Z,12.78
2019-04-03T05:52:51.038Z,12.89
2019-04-03T05:56:56.713Z,12.87
2019-04-03T06:01:05.979Z,13.21
2019-04-03T06:05:12.750Z,13.17
2019-04-03T06:09:17.830Z,13.01
2019-04-03T06:13:23.509Z,13.13
2019-04-03T06:17:29.203Z,13.11
2019-04-03T06:21:34.990Z,13.20
2019-04-03T06:25:40.688Z,12.79
2019-04-03T06:29:46.360Z,13.16
2019-04-03T06:33:52.250Z,13.20
2019-04-03T06:37:58.104Z,13.37
2019-04-03T06:42:03.837Z,13.51
2019-04-03T06:46:09.531Z,13.62
2019-04-03T06:50:17.561Z,13.55
2019-04-03T06:54:23.324Z,13.52
2019-04-03T06:58:37.254Z,13.44
2019-04-03T07:02:36.593Z,13.68
2019-04-03T07:06:42.816Z,13.78
2019-04-03T07:10:54.959Z,14.00
2019-04-03T07:14:57.063Z,14.07
2019-04-03T07:19:02.753Z,14.63
2019-04-03T07:23:08.543Z,14.89
2019-04-03T07:27:15.131Z,14.81
2019-04-03T07:31:23.263Z,15.01
2019-04-03T07:35:28.714Z,15.11
2019-04-03T07:39:34.401Z,14.95
2019-04-03T07:43:40.318Z,15.19
2019-04-03T07:47:46.051Z,15.39
2019-04-03T07:51:51.953Z,15.35
2019-04-03T07:55:57.662Z,15.92
2019-04-03T08:00:06.123Z,16.71
2019-04-03T08:04:11.153Z,17.68
2019-04-03T08:08:16.868Z,17.77
2019-04-03T08:12:23.633Z,17.32
2019-04-03T08:16:29.336Z,16.57
2019-04-03T08:20:35.025Z,15.97
2019-04-03T08:24:40.829Z,15.26
2019-04-03T08:28:46.738Z,15.34
2019-04-03T08:32:52.644Z,14.76
2019-04-03T08:37:01.271Z,14.57
2019-04-03T08:41:05.849Z,14.11
2019-04-03T08:45:12.692Z,14.12
2019-04-03T08:49:18.387Z,13.79
2019-04-03T08:53:24.085Z,13.98
2019-04-03T08:57:29.782Z,14.12
2019-04-03T09:01:37.261Z,14.14
2019-04-03T09:05:43.127Z,14.06
2019-04-03T09:09:48.838Z,14.00
2019-04-03T09:13:55.697Z,14.45
2019-04-03T09:18:01.776Z,14.21
2019-04-03T09:22:07.482Z,14.04
2019-04-03T09:26:13.170Z,14.57
2019-04-03T09:30:20.645Z,14.78
2019-04-03T09:34:28.868Z,14.40
2019-04-03T09:38:35.468Z,14.32
2019-04-03T09:42:41.160Z,14.52
2019-04-03T09:46:46.900Z,14.85
2019-04-03T09:50:52.604Z,14.69
2019-04-03T09:55:00.301Z,14.90
2019-04-03T09:59:06.736Z,15.14
2019-04-03T10:03:12.930Z,15.97
2019-04-03T10:07:18.650Z,16.02
2019-04-03T10:11:24.634Z,15.31
2019-04-03T10:15:31.211Z,15.12
2019-04-03T10:19:38.534Z,15.24
2019-04-03T10:23:44.487Z,15.42
2019-04-03T10:27:50.183Z,15.63
2019-04-03T10:31:56.288Z,15.49
2019-04-03T10:36:02.250Z,16.23
2019-04-03T10:40:10.156Z,17.62
2019-04-03T10:44:16.192Z,21.16
2019-04-03T10:48:21.868Z,23.06
2019-04-03T10:52:27.559Z,24.21
2019-04-03T10:56:33.383Z,24.23
2019-04-03T11:00:39.466Z,24.69
2019-04-03T11:04:45.460Z,26.86
2019-04-03T11:08:51.137Z,25.29
2019-04-03T11:12:56.831Z,26.24
2019-04-03T11:17:02.792Z,27.77
2019-04-03T11:21:09.124Z,26.72
2019-04-03T11:25:16.123Z,26.84
2019-04-03T11:29:21.906Z,28.33
2019-04-03T11:33:27.777Z,29.99
2019-04-03T11:37:33.870Z,30.76
2019-04-03T11:41:39.638Z,30.00
2019-04-03T11:45:45.579Z,30.83
2019-04-03T11:49:52.389Z,29.55
2019-04-03T11:53:59.838Z,31.68
2019-04-03T11:58:06.952Z,32.29
2019-04-03T12:02:13.934Z,29.56
2019-04-03T12:06:21.054Z,28.22
2019-04-03T12:10:26.901Z,29.79
2019-04-03T12:14:32.565Z,27.23
2019-04-03T12:18:38.314Z,25.55
2019-04-03T12:22:44.305Z,24.57
2019-04-03T12:26:51.510Z,22.70
2019-04-03T12:30:57.458Z,21.60
2019-04-03T12:35:03.536Z,20.33
2019-04-03T12:39:15.743Z,19.66
2019-04-03T12:43:21.471Z,19.45
2019-04-03T12:47:28.324Z,18.84
2019-04-03T12:51:34.353Z,18.47
2019-04-03T12:55:42.193Z,18.36
2019-04-03T12:59:48.113Z,18.29
2019-04-03T13:03:55.948Z,18.61
2019-04-03T13:08:01.297Z,19.98
2019-04-03T13:12:08.036Z,20.02
2019-04-03T13:16:13.807Z,20.70
2019-04-03T13:20:20.775Z,19.84
2019-04-03T13:24:26.461Z,18.78
2019-04-03T13:28:33.473Z,18.14
2019-04-03T13:32:39.660Z,18.91
2019-04-03T13:36:45.394Z,19.84
2019-04-03T13:40:51.086Z,21.21
2019-04-03T13:44:58.848Z,22.26
2019-04-03T13:49:05.135Z,21.66
2019-04-03T13:53:10.862Z,20.41
2019-04-03T13:57:16.691Z,18.94
2019-04-03T14:01:23.739Z,18.38
2019-04-03T14:05:32.277Z,18.29
2019-04-03T14:09:37.153Z,17.99
2019-04-03T14:13:44.213Z,17.80
2019-04-03T14:17:56.683Z,17.39
2019-04-03T14:22:00.626Z,18.09
2019-04-03T14:26:08.463Z,18.25
2019-04-03T14:30:14.562Z,17.78
2019-04-03T14:34:20.247Z,17.35
2019-04-03T14:38:27.722Z,16.64
2019-04-03T14:42:33.449Z,16.75
2019-04-03T14:46:39.195Z,18.83
2019-04-03T14:50:45.898Z,17.83
2019-04-03T14:54:51.657Z,16.93
2019-04-03T14:58:58.926Z,16.65
2019-04-03T15:03:05.408Z,16.78
2019-04-03T15:07:11.083Z,16.10
2019-04-03T15:11:16.846Z,15.79
2019-04-03T15:15:22.625Z,15.56
2019-04-03T15:19:30.163Z,15.57
2019-04-03T15:23:40.216Z,15.03
2019-04-03T15:27:43.180Z,14.49
2019-04-03T15:31:49.217Z,14.33
2019-04-03T15:35:55.350Z,14.24
2019-04-03T15:40:19.230Z,14.09
2019-04-03T15:44:27.459Z,14.18
2019-04-03T15:49:17.645Z,14.05
2019-04-03T15:53:24.148Z,14.10
2019-04-03T15:57:30.917Z,14.15
2019-04-03T16:01:37.107Z,12.48
2019-04-03T16:05:44.288Z,11.89
2019-04-03T16:09:51.292Z,12.39
2019-04-03T16:13:57.307Z,12.30
2019-04-03T16:18:06.291Z,10.86
2019-04-03T16:22:16.231Z,10.13
2019-04-03T16:26:23.804Z,11.08
2019-04-03T16:30:29.791Z,11.60
2019-04-03T16:34:35.741Z,11.85
2019-04-03T16:38:41.508Z,11.44
2019-04-03T16:42:47.949Z,11.29
2019-04-03T16:46:54.684Z,11.54
2019-04-03T16:51:00.988Z,11.21
2019-04-03T16:55:09.168Z,9.98
2019-04-03T16:59:15.409Z,10.60
2019-04-03T17:03:21.474Z,11.11
2019-04-03T17:07:27.191Z,11.40
2019-04-03T17:11:33.471Z,11.14
2019-04-03T17:15:39.193Z,11.15
2019-04-03T17:19:44.955Z,10.65
2019-04-03T17:23:51.080Z,10.94
2019-04-03T17:27:58.937Z,11.15
2019-04-03T17:37:04.833Z,11.57
2019-04-03T17:41:19.480Z,11.66
2019-04-03T17:45:25.250Z,11.64
2019-04-03T17:49:31.086Z,11.60
2019-04-03T17:53:37.209Z,11.56
2019-04-03T17:57:45.306Z,11.57
2019-04-03T18:01:52.171Z,11.37
2019-04-03T18:05:57.996Z,11.24
2019-04-03T18:10:06.135Z,11.50
2019-04-03T18:14:12.818Z,11.07
2019-04-03T18:18:18.768Z,10.73
2019-04-03T18:22:24.488Z,10.50
2019-04-03T18:26:30.641Z,10.73
2019-04-03T18:30:37.088Z,11.02
2019-04-03T18:34:42.805Z,11.12
2019-04-03T18:38:48.641Z,11.04
2019-04-03T18:44:21.909Z,11.13
2019-04-03T18:53:19.070Z,10.75
2019-04-03T18:57:24.771Z,10.23
2019-04-03T19:02:18.539Z,9.86
2019-04-03T19:11:17.670Z,10.17
2019-04-03T19:15:24.623Z,9.95
2019-04-03T19:20:18.909Z,10.16
2019-04-03T19:24:25.167Z,10.41
2019-04-03T19:29:15.956Z,10.52
2019-04-03T19:33:21.776Z,10.32
2019-04-03T19:37:27.863Z,10.53
2019-04-03T19:41:33.653Z,10.95
2019-04-03T19:46:18.133Z,10.72
2019-04-03T19:50:24.073Z,10.18
2019-04-03T19:54:29.906Z,10.01
2019-04-03T19:58:36.077Z,10.20
2019-04-03T20:02:42.992Z,10.49
2019-04-03T20:06:49.402Z,10.34
2019-04-03T20:10:55.185Z,10.23
2019-04-03T20:15:02.347Z,10.09
2019-04-03T20:19:20.376Z,9.99
2019-04-03T20:23:26.079Z,9.69
2019-04-03T20:27:31.865Z,9.63
2019-04-03T20:31:40.581Z,9.73
2019-04-03T20:35:44.996Z,9.49
2019-04-03T20:39:52.424Z,9.31
2019-04-03T20:43:58.159Z,9.44
2019-04-03T20:48:19.289Z,9.38
2019-04-03T20:52:25.035Z,9.26
2019-04-03T20:56:30.737Z,9.45
2019-04-03T21:00:36.563Z,9.86
2019-04-03T21:04:42.315Z,9.73
2019-04-03T21:08:47.988Z,9.46
2019-04-03T21:12:53.692Z,9.38
2019-04-03T21:17:18.896Z,9.35
2019-04-03T21:21:25.709Z,9.28
2019-04-03T21:25:31.880Z,9.05
2019-04-03T21:29:37.512Z,9.54
2019-04-03T21:33:45.082Z,10.01
2019-04-03T21:37:50.708Z,10.29
2019-04-03T21:41:56.547Z,10.55
2019-04-03T21:46:17.571Z,10.62
2019-04-03T21:50:23.223Z,10.60
2019-04-03T21:54:29.875Z,10.49
2019-04-03T21:58:35.613Z,10.33
2019-04-03T22:02:41.305Z,10.00
2019-04-03T22:06:47.007Z,9.78
2019-04-03T22:10:52.824Z,9.84
2019-04-03T22:14:58.726Z,9.84
2019-04-03T22:19:04.541Z,9.98
2019-04-03T22:23:11.238Z,10.03
2019-04-03T22:27:16.908Z,10.09
2019-04-03T22:31:22.822Z,9.51
2019-04-03T22:35:30.166Z,9.21
2019-04-03T22:39:38.719Z,9.14
2019-04-03T22:43:44.169Z,9.16
2019-04-03T22:47:51.395Z,9.34
2019-04-03T22:51:57.067Z,9.70
2019-04-03T22:56:02.951Z,9.84
2019-04-03T23:00:09.452Z,9.85
2019-04-03T23:04:16.757Z,9.72
2019-04-03T23:08:22.783Z,9.31
2019-04-03T23:12:28.913Z,9.23
2019-04-03T23:16:34.766Z,9.60
2019-04-03T23:20:40.490Z,10.00
2019-04-03T23:24:46.181Z,10.29
2019-04-03T23:28:51.899Z,10.22
2019-04-03T23:32:57.716Z,10.13
2019-04-03T23:37:03.486Z,9.93
2019-04-03T23:41:09.237Z,9.92
2019-04-03T23:45:15.138Z,10.01
2019-04-03T23:49:20.850Z,9.80
2019-04-03T23:53:26.511Z,9.83
2019-04-03T23:57:32.213Z,9.45
